Terminal Aerodrome Forecast
Issued by NWS

Home | Current Version | Previous Version | Text Only | Print | Product List | Glossary On
Versions: 1 2 3 4 5 6 7 8 9 10 11 12 13
000
FTUS42 TJSJ 220500
TAFNCM
TAF
TNCM 220520Z 2206/2306 08008KT P6SM VCSH SCT018 BKN035 BKN100
      TEMPO 2207/2211 VRB12KT -SHRA BKN018
     FM221300 10011KT P6SM VCTS SCT018CB BKN050
      TEMPO 2214/2218 VRB12G20KT 3SM TSRA BKN019CB
     FM221800 12014KT P6SM VCSH SCT020 BKN035 BKN100
     FM222300 10010KT P6SM -RA SCT020 BKN050 BKN120=

USA.gov is the U.S. government's official web portal to all federal, state and local government web resources and services.